createdAt,value
2023-04-06T00:01:36.287Z,10.60
2023-04-06T00:04:05.489Z,8.80
2023-04-06T00:06:33.922Z,9.50
2023-04-06T00:09:02.099Z,7.50
2023-04-06T00:11:29.553Z,6.60
2023-04-06T00:13:58.034Z,8.10
2023-04-06T00:16:25.472Z,6.20
2023-04-06T00:18:53.595Z,6.80
2023-04-06T00:21:21.116Z,6.90
2023-04-06T00:23:48.223Z,7.20
2023-04-06T00:26:15.453Z,7.90
2023-04-06T00:28:45.299Z,6.00
2023-04-06T00:31:12.514Z,9.00
2023-04-06T00:33:39.636Z,6.50
2023-04-06T00:36:07.565Z,6.80
2023-04-06T00:38:35.484Z,5.20
2023-04-06T00:41:04.152Z,6.10
2023-04-06T00:43:32.669Z,6.60
2023-04-06T00:45:59.718Z,7.70
2023-04-06T00:48:31.365Z,8.90
2023-04-06T00:50:59.428Z,6.20
2023-04-06T00:53:26.667Z,7.60
2023-04-06T00:55:54.258Z,8.10
2023-04-06T00:58:22.190Z,8.10
2023-04-06T01:00:53.141Z,7.10
2023-04-06T01:03:23.453Z,7.10
2023-04-06T01:05:56.099Z,9.30
2023-04-06T01:08:26.057Z,8.70
2023-04-06T01:10:56.815Z,6.80
2023-04-06T01:13:29.150Z,7.00
2023-04-06T01:16:00.232Z,8.90
2023-04-06T01:18:53.588Z,8.40
2023-04-06T01:21:24.598Z,8.90
2023-04-06T01:24:10.385Z,6.20
2023-04-06T01:26:50.584Z,7.30
2023-04-06T01:29:17.686Z,7.90
2023-04-06T01:31:45.524Z,6.40
2023-04-06T01:34:12.911Z,6.90
2023-04-06T01:36:40.467Z,7.60
2023-04-06T01:39:20.096Z,7.40
2023-04-06T01:41:47.773Z,6.90
2023-04-06T01:44:17.275Z,5.50
2023-04-06T01:46:44.984Z,6.40
2023-04-06T01:49:13.414Z,7.30
2023-04-06T01:51:42.760Z,8.70
2023-04-06T01:54:12.064Z,5.60
2023-04-06T01:56:53.194Z,6.90
2023-04-06T01:59:29.351Z,7.60
2023-04-06T02:01:57.217Z,6.70
2023-04-06T02:04:26.476Z,5.50
2023-04-06T02:07:03.815Z,10.30
2023-04-06T02:09:31.066Z,9.10
2023-04-06T02:11:58.430Z,8.60
2023-04-06T02:14:26.088Z,8.70
2023-04-06T02:16:54.222Z,7.60
2023-04-06T02:19:23.140Z,13.70
2023-04-06T02:21:57.158Z,13.10
2023-04-06T02:24:24.436Z,9.50
2023-04-06T02:26:51.845Z,17.60
2023-04-06T02:29:19.112Z,13.00
2023-04-06T02:31:47.854Z,10.20
2023-04-06T02:34:18.022Z,15.70
2023-04-06T02:36:47.776Z,10.10
2023-04-06T02:39:14.982Z,14.10
2023-04-06T02:41:42.877Z,11.00
2023-04-06T02:44:11.019Z,12.10
2023-04-06T02:46:40.757Z,14.30
2023-04-06T02:49:08.041Z,10.80
2023-04-06T02:51:36.154Z,13.50
2023-04-06T02:54:26.783Z,29.40
2023-04-06T02:56:54.209Z,15.90
2023-04-06T02:59:21.890Z,19.50
2023-04-06T03:02:00.095Z,11.80
2023-04-06T03:04:27.542Z,24.70
2023-04-06T03:06:55.695Z,14.40
2023-04-06T03:09:36.940Z,19.00
2023-04-06T03:12:04.447Z,12.40
2023-04-06T03:14:34.055Z,16.00
2023-04-06T03:17:01.763Z,11.10
2023-04-06T03:19:29.641Z,12.30
2023-04-06T03:21:58.778Z,8.50
2023-04-06T03:24:26.542Z,13.80
2023-04-06T03:26:53.891Z,10.30
2023-04-06T03:29:23.654Z,19.30
2023-04-06T03:31:51.788Z,12.60
2023-04-06T03:34:32.768Z,10.20
2023-04-06T03:37:09.362Z,10.80
2023-04-06T03:39:41.021Z,16.20
2023-04-06T03:42:09.349Z,8.30
2023-04-06T03:44:41.938Z,13.60
2023-04-06T03:47:09.498Z,17.50
2023-04-06T03:49:40.571Z,27.10
2023-04-06T03:52:09.011Z,96.70
2023-04-06T03:54:36.881Z,31.90
2023-04-06T03:57:04.962Z,25.30
2023-04-06T03:59:32.366Z,18.60
2023-04-06T04:02:00.090Z,17.00
2023-04-06T04:04:27.319Z,17.30
2023-04-06T04:06:54.671Z,25.40
2023-04-06T04:09:22.238Z,33.00
2023-04-06T04:11:51.383Z,52.20
2023-04-06T04:14:18.805Z,13.30
2023-04-06T04:16:46.046Z,22.30
2023-04-06T04:19:13.422Z,69.00
2023-04-06T04:21:47.736Z,25.10
2023-04-06T04:24:18.340Z,32.40
2023-04-06T04:26:46.711Z,31.60
2023-04-06T04:29:15.769Z,47.50
2023-04-06T04:31:44.202Z,56.30
2023-04-06T04:34:16.133Z,63.90
2023-04-06T04:36:47.627Z,25.80
2023-04-06T04:39:21.411Z,26.40
2023-04-06T04:41:54.297Z,22.10
2023-04-06T04:44:22.498Z,18.90
2023-04-06T04:46:50.135Z,12.80
2023-04-06T04:49:20.974Z,48.70
2023-04-06T04:51:53.064Z,25.30
2023-04-06T04:54:26.956Z,12.40
2023-04-06T04:56:55.013Z,49.20
2023-04-06T04:59:27.494Z,36.10
2023-04-06T05:02:02.317Z,24.00
2023-04-06T05:04:37.462Z,23.80
2023-04-06T05:07:06.462Z,63.10
2023-04-06T05:09:34.318Z,23.00
2023-04-06T05:12:05.281Z,35.80
2023-04-06T05:14:36.882Z,39.60
2023-04-06T05:17:10.381Z,25.10
2023-04-06T05:19:37.866Z,27.70
2023-04-06T05:22:05.286Z,29.20
2023-04-06T05:24:37.501Z,111.40
2023-04-06T05:27:06.701Z,75.10
2023-04-06T05:29:34.202Z,35.70
2023-04-06T05:32:06.830Z,26.40
2023-04-06T05:34:35.819Z,32.30
2023-04-06T05:37:04.006Z,27.20
2023-04-06T05:39:31.349Z,37.80
2023-04-06T05:41:58.490Z,57.40
2023-04-06T05:44:39.365Z,32.20
2023-04-06T05:47:09.277Z,20.20
2023-04-06T05:49:38.476Z,55.90
2023-04-06T05:52:09.202Z,115.40
2023-04-06T05:54:37.382Z,65.90
2023-04-06T05:57:04.439Z,98.80
2023-04-06T05:59:32.447Z,93.90
2023-04-06T06:02:01.840Z,112.00
2023-04-06T06:04:31.142Z,121.10
2023-04-06T06:06:58.676Z,48.40
2023-04-06T06:09:32.975Z,68.40
2023-04-06T06:12:14.016Z,42.20
2023-04-06T06:14:42.010Z,48.00
2023-04-06T06:17:09.189Z,32.40
2023-04-06T06:19:39.806Z,58.10
2023-04-06T06:22:08.228Z,31.30
2023-04-06T06:24:37.984Z,45.80
2023-04-06T06:27:05.548Z,56.00
2023-04-06T06:29:33.965Z,44.20
2023-04-06T06:32:01.592Z,51.70
2023-04-06T06:34:29.761Z,51.10
2023-04-06T06:36:58.555Z,48.40
2023-04-06T06:39:25.924Z,46.00
2023-04-06T06:41:55.626Z,41.30
2023-04-06T06:44:24.459Z,37.80
2023-04-06T06:46:54.848Z,26.70
2023-04-06T06:49:21.937Z,31.60
2023-04-06T06:51:49.231Z,79.50
2023-04-06T06:54:16.896Z,60.80
2023-04-06T06:56:43.953Z,40.80
2023-04-06T06:59:12.195Z,50.00
2023-04-06T07:01:40.567Z,37.40
2023-04-06T07:04:09.330Z,46.90
2023-04-06T07:06:40.030Z,45.80
2023-04-06T07:09:07.592Z,27.80
2023-04-06T07:11:34.660Z,28.70
2023-04-06T07:14:04.557Z,20.50
2023-04-06T07:16:32.236Z,22.70
2023-04-06T07:18:59.454Z,29.20
2023-04-06T07:21:27.541Z,39.10
2023-04-06T07:23:54.771Z,23.70
2023-04-06T07:26:22.069Z,18.40
2023-04-06T07:28:54.135Z,40.80
2023-04-06T07:31:23.107Z,29.20
2023-04-06T07:33:51.091Z,22.90
2023-04-06T07:36:21.068Z,45.90
2023-04-06T07:38:49.456Z,40.40
2023-04-06T07:41:17.638Z,19.80
2023-04-06T07:43:45.183Z,49.60
2023-04-06T07:46:13.293Z,18.40
2023-04-06T07:48:42.731Z,21.60
2023-04-06T07:51:14.714Z,69.00
2023-04-06T07:53:42.072Z,22.60
2023-04-06T07:56:09.151Z,14.20
2023-04-06T07:58:36.684Z,16.60
2023-04-06T08:01:04.768Z,23.90
2023-04-06T08:03:36.480Z,15.70
2023-04-06T08:06:04.683Z,24.40
2023-04-06T08:08:32.655Z,29.20
2023-04-06T08:11:01.979Z,21.20
2023-04-06T08:13:30.184Z,16.70
2023-04-06T08:16:01.143Z,26.00
2023-04-06T08:18:30.563Z,20.20
2023-04-06T08:20:57.944Z,22.60
2023-04-06T08:23:26.197Z,45.90
2023-04-06T08:25:54.780Z,21.50
2023-04-06T08:28:22.029Z,39.90
2023-04-06T08:30:49.273Z,28.70
2023-04-06T08:33:16.817Z,21.80
2023-04-06T08:35:43.931Z,40.60
2023-04-06T08:38:11.790Z,26.50
2023-04-06T08:40:39.832Z,29.70
2023-04-06T08:43:10.388Z,33.40
2023-04-06T08:45:39.207Z,27.00
2023-04-06T08:48:07.152Z,38.10
2023-04-06T08:50:36.047Z,24.80
2023-04-06T08:53:03.266Z,25.20
2023-04-06T08:55:31.127Z,40.40
2023-04-06T09:05:40.920Z,32.30
2023-04-06T09:08:10.531Z,21.70
2023-04-06T09:10:42.081Z,17.70
2023-04-06T09:13:10.564Z,34.40
2023-04-06T09:15:40.795Z,19.20
2023-04-06T09:18:10.127Z,63.60
2023-04-06T09:20:38.443Z,34.00
2023-04-06T09:23:06.735Z,23.50
2023-04-06T09:25:35.248Z,41.00
2023-04-06T09:28:05.193Z,16.90
2023-04-06T09:30:33.567Z,12.70
2023-04-06T09:33:04.478Z,12.90
2023-04-06T09:35:34.143Z,14.60
2023-04-06T09:38:12.044Z,12.20
2023-04-06T09:43:27.891Z,11.70
2023-04-06T09:45:57.117Z,11.00
2023-04-06T09:48:29.237Z,13.10
2023-04-06T09:51:00.706Z,9.50
2023-04-06T09:53:29.198Z,13.00
2023-04-06T09:55:58.932Z,14.10
2023-04-06T09:58:27.959Z,14.80
2023-04-06T10:00:56.242Z,11.40
2023-04-06T10:03:46.629Z,17.30
2023-04-06T10:06:15.593Z,19.20
2023-04-06T10:08:44.393Z,14.90
2023-04-06T10:11:12.698Z,24.20
2023-04-06T10:13:43.103Z,9.50
2023-04-06T10:16:11.518Z,17.30
2023-04-06T10:21:17.386Z,19.80
2023-04-06T10:24:02.310Z,20.60
2023-04-06T10:26:32.409Z,20.40
2023-04-06T10:29:04.372Z,23.00
2023-04-06T10:31:33.143Z,20.50
2023-04-06T10:34:02.619Z,20.30
2023-04-06T10:36:34.339Z,20.30
2023-04-06T10:39:04.460Z,9.40
2023-04-06T10:41:43.294Z,13.00
2023-04-06T10:44:26.768Z,15.90
2023-04-06T10:47:01.410Z,20.80
2023-04-06T10:49:31.222Z,14.40
2023-04-06T10:51:59.423Z,17.70
2023-04-06T10:54:28.279Z,12.80
2023-04-06T10:56:57.628Z,11.60
2023-04-06T10:59:26.836Z,14.10
2023-04-06T11:01:56.990Z,14.90
2023-04-06T11:04:26.281Z,16.90
2023-04-06T11:06:56.162Z,15.60
2023-04-06T11:09:28.320Z,21.90
2023-04-06T11:11:57.930Z,16.10
2023-04-06T11:14:27.634Z,21.10
2023-04-06T11:16:56.419Z,47.60
2023-04-06T11:19:24.774Z,18.10
2023-04-06T11:21:53.535Z,18.90
2023-04-06T11:24:23.820Z,15.00
2023-04-06T11:26:58.592Z,19.00
2023-04-06T11:29:29.045Z,30.10
2023-04-06T11:32:04.647Z,25.20
2023-04-06T11:34:40.108Z,22.00
2023-04-06T11:37:10.648Z,35.50
2023-04-06T11:39:52.003Z,61.70
2023-04-06T11:42:30.741Z,75.70
2023-04-06T11:44:59.490Z,31.80
2023-04-06T11:47:38.582Z,25.00
2023-04-06T11:50:14.330Z,21.40
2023-04-06T11:52:46.584Z,26.10
2023-04-06T11:55:19.267Z,20.40
2023-04-06T11:57:47.768Z,36.30
2023-04-06T12:00:16.765Z,25.00
2023-04-06T12:02:49.391Z,40.20
2023-04-06T12:05:17.906Z,20.00
2023-04-06T12:07:47.062Z,17.60
2023-04-06T12:10:15.226Z,17.70
2023-04-06T12:12:44.457Z,16.10
2023-04-06T12:15:16.712Z,20.10
2023-04-06T12:17:45.728Z,17.40
2023-04-06T12:20:25.353Z,14.30
2023-04-06T12:22:55.292Z,12.20
2023-04-06T12:25:23.523Z,11.80
2023-04-06T12:27:55.727Z,15.30
2023-04-06T12:30:24.137Z,9.40
2023-04-06T12:33:00.334Z,13.20
2023-04-06T12:35:28.683Z,13.60
2023-04-06T12:37:56.948Z,13.80
2023-04-06T12:40:25.381Z,10.70
2023-04-06T12:42:54.568Z,9.10
2023-04-06T12:45:27.495Z,15.50
2023-04-06T12:47:56.301Z,12.10
2023-04-06T12:50:24.638Z,11.20
2023-04-06T12:52:56.919Z,12.30
2023-04-06T12:55:26.128Z,14.70
2023-04-06T12:57:55.039Z,11.10
2023-04-06T13:00:24.272Z,13.80
2023-04-06T13:02:53.325Z,16.70
2023-04-06T13:05:21.637Z,12.60
2023-04-06T13:07:51.104Z,13.40
2023-04-06T13:10:19.975Z,13.90
2023-04-06T13:12:48.546Z,13.90
2023-04-06T13:15:21.669Z,11.00
2023-04-06T13:17:52.201Z,12.10
2023-04-06T13:20:21.657Z,11.20
2023-04-06T13:22:49.951Z,10.80
2023-04-06T13:25:18.407Z,13.90
2023-04-06T13:27:50.960Z,13.90
2023-04-06T13:30:19.442Z,15.70
2023-04-06T13:32:47.830Z,18.20
2023-04-06T13:35:16.128Z,13.00
2023-04-06T13:37:44.644Z,15.60
2023-04-06T13:40:12.994Z,13.30
2023-04-06T13:42:41.991Z,15.50
2023-04-06T13:45:14.867Z,18.20
2023-04-06T13:47:43.367Z,15.30
2023-04-06T13:50:12.054Z,19.20
2023-04-06T13:52:40.958Z,12.30
2023-04-06T13:55:09.832Z,18.10
2023-04-06T13:57:42.521Z,17.30
2023-04-06T14:00:13.785Z,12.90
2023-04-06T14:02:43.092Z,10.90
2023-04-06T14:05:11.722Z,15.30
2023-04-06T14:07:41.311Z,11.60
2023-04-06T14:10:14.867Z,15.00
2023-04-06T14:12:44.922Z,10.60
2023-04-06T14:15:13.373Z,15.30
2023-04-06T14:17:45.255Z,10.10
2023-04-06T14:20:15.895Z,11.90
2023-04-06T14:22:44.374Z,11.60
2023-04-06T14:25:13.741Z,9.10
2023-04-06T14:27:42.198Z,8.30
2023-04-06T14:30:11.521Z,12.70
2023-04-06T14:32:40.097Z,11.40
2023-04-06T14:35:08.684Z,11.40
2023-04-06T14:37:37.112Z,12.30
2023-04-06T14:40:06.500Z,13.70
2023-04-06T14:42:37.723Z,13.90
2023-04-06T14:45:06.869Z,11.30
2023-04-06T14:47:36.482Z,8.50
2023-04-06T14:50:06.762Z,9.40
2023-04-06T14:52:35.966Z,9.50
2023-04-06T14:55:05.662Z,11.00
2023-04-06T14:57:34.909Z,10.80
2023-04-06T15:00:04.510Z,10.50
2023-04-06T15:02:34.429Z,8.80
2023-04-06T15:05:03.946Z,11.70
2023-04-06T15:07:32.564Z,11.20
2023-04-06T15:10:01.107Z,13.50
2023-04-06T15:12:30.891Z,11.30
2023-04-06T15:14:59.309Z,14.50
2023-04-06T15:17:28.269Z,16.30
2023-04-06T15:19:56.765Z,23.50
2023-04-06T15:22:25.347Z,19.10
2023-04-06T15:24:53.916Z,15.30
2023-04-06T15:27:22.311Z,10.90
2023-04-06T15:29:50.942Z,9.70
2023-04-06T15:32:19.487Z,6.90
2023-04-06T15:34:48.676Z,7.10
2023-04-06T15:37:17.024Z,8.00
2023-04-06T15:39:45.583Z,9.40
2023-04-06T15:42:14.220Z,10.80
2023-04-06T15:44:42.661Z,8.60
2023-04-06T15:47:11.258Z,4.20
2023-04-06T15:49:40.414Z,7.00
2023-04-06T15:52:16.571Z,7.10
2023-04-06T15:55:08.356Z,8.60
2023-04-06T15:57:36.759Z,8.70
2023-04-06T16:00:06.341Z,6.80
2023-04-06T16:02:39.904Z,8.20
2023-04-06T16:05:08.709Z,8.00
2023-04-06T16:07:38.449Z,9.20
2023-04-06T16:10:08.767Z,10.60
2023-04-06T16:12:37.268Z,6.80
2023-04-06T16:15:07.041Z,7.20
2023-04-06T16:17:35.806Z,9.30
2023-04-06T16:20:05.196Z,8.30
2023-04-06T16:22:34.056Z,9.20
2023-04-06T16:25:03.954Z,8.90
2023-04-06T16:27:32.844Z,5.40
2023-04-06T16:32:40.983Z,10.40
2023-04-06T16:35:09.700Z,8.00
2023-04-06T16:37:38.349Z,8.90
2023-04-06T16:40:08.619Z,9.40
2023-04-06T16:42:38.153Z,6.80
2023-04-06T16:45:07.822Z,7.40
2023-04-06T16:50:09.151Z,8.00
2023-04-06T16:52:39.051Z,8.10
2023-04-06T16:55:08.404Z,9.40
2023-04-06T16:57:36.941Z,6.50
2023-04-06T17:00:07.898Z,9.40
2023-04-06T17:02:40.123Z,8.90
2023-04-06T17:05:09.456Z,7.40
2023-04-06T17:07:37.834Z,11.50
2023-04-06T17:10:07.291Z,5.80
2023-04-06T17:12:38.166Z,8.70
2023-04-06T17:15:08.195Z,8.20
2023-04-06T17:17:37.512Z,7.80
2023-04-06T17:20:07.078Z,8.10
2023-04-06T17:22:36.401Z,5.50
2023-04-06T17:25:08.320Z,5.20
2023-04-06T17:27:41.552Z,6.20
2023-04-06T17:30:10.956Z,7.40
2023-04-06T17:32:40.190Z,5.40
2023-04-06T17:35:11.375Z,7.10
2023-04-06T17:37:40.685Z,4.50
2023-04-06T17:40:10.607Z,5.30
2023-04-06T17:42:38.904Z,3.80
2023-04-06T17:45:08.485Z,4.50
2023-04-06T17:47:37.302Z,4.80
2023-04-06T17:50:06.881Z,2.90
2023-04-06T17:52:35.261Z,4.70
2023-04-06T17:55:08.474Z,7.30
2023-04-06T17:57:41.071Z,4.50
2023-04-06T18:00:12.240Z,4.90
2023-04-06T18:03:01.051Z,7.00
2023-04-06T18:05:30.018Z,4.30
2023-04-06T18:07:59.026Z,4.60
2023-04-06T18:10:28.829Z,3.10
2023-04-06T18:12:57.446Z,3.70
2023-04-06T18:15:26.406Z,5.30
2023-04-06T18:17:56.960Z,6.20
2023-04-06T18:20:26.743Z,4.40
2023-04-06T18:22:55.960Z,4.60
2023-04-06T18:25:25.551Z,4.60
2023-04-06T18:27:53.845Z,4.90
2023-04-06T18:30:22.303Z,5.20
2023-04-06T18:32:52.982Z,11.90
2023-04-06T18:35:21.433Z,8.00
2023-04-06T18:37:49.998Z,6.30
2023-04-06T18:40:38.476Z,3.90
2023-04-06T18:43:11.198Z,5.20
2023-04-06T18:45:40.061Z,4.00
2023-04-06T18:48:09.903Z,6.20
2023-04-06T18:50:38.228Z,4.00
2023-04-06T18:53:07.963Z,6.80
2023-04-06T18:55:37.533Z,8.50
2023-04-06T18:58:05.950Z,6.80
2023-04-06T19:00:34.493Z,7.40
2023-04-06T19:03:04.594Z,4.20
2023-04-06T19:05:33.399Z,2.20
2023-04-06T19:08:02.080Z,3.10
2023-04-06T19:10:34.663Z,2.60
2023-04-06T19:13:03.657Z,3.60
2023-04-06T19:15:32.029Z,4.60
2023-04-06T19:18:03.036Z,2.70
2023-04-06T19:20:34.316Z,2.70
2023-04-06T19:23:04.233Z,2.90
2023-04-06T19:25:33.741Z,3.10
2023-04-06T19:28:02.326Z,3.80
2023-04-06T19:30:30.900Z,3.10
2023-04-06T19:33:03.989Z,3.20
2023-04-06T19:35:33.093Z,2.60
2023-04-06T19:38:01.701Z,3.50
2023-04-06T19:40:30.400Z,4.50
2023-04-06T19:42:59.045Z,5.50
2023-04-06T19:45:29.576Z,3.10
2023-04-06T19:47:58.160Z,3.00
2023-04-06T19:50:27.556Z,2.50
2023-04-06T19:52:56.547Z,8.00
2023-04-06T19:55:25.158Z,7.30
2023-04-06T19:57:54.124Z,4.90
2023-04-06T20:00:23.731Z,4.20
2023-04-06T20:02:52.502Z,4.20
2023-04-06T20:05:21.215Z,7.10
2023-04-06T20:07:50.340Z,13.60
2023-04-06T20:10:19.700Z,11.70
2023-04-06T20:12:50.665Z,11.70
2023-04-06T20:15:19.256Z,11.50
2023-04-06T20:17:53.564Z,9.30
2023-04-06T20:20:23.463Z,7.50
2023-04-06T20:22:52.078Z,8.90
2023-04-06T20:25:26.888Z,6.70
2023-04-06T20:27:55.564Z,4.90
2023-04-06T20:30:24.033Z,5.80
2023-04-06T20:32:55.966Z,6.40
2023-04-06T20:35:24.618Z,5.10
2023-04-06T20:37:53.408Z,6.60
2023-04-06T20:40:22.465Z,6.00
2023-04-06T20:42:50.952Z,4.30
2023-04-06T20:45:21.710Z,7.00
2023-04-06T20:47:54.612Z,10.50
2023-04-06T20:50:24.596Z,8.80
2023-04-06T20:52:53.072Z,6.90
2023-04-06T20:55:21.647Z,6.90
2023-04-06T20:57:50.030Z,6.40
2023-04-06T21:00:19.448Z,8.00
2023-04-06T21:02:49.792Z,6.70
2023-04-06T21:05:20.936Z,5.50
2023-04-06T21:07:49.286Z,5.90
2023-04-06T21:10:18.370Z,8.10
2023-04-06T21:12:46.955Z,7.10
2023-04-06T21:15:16.050Z,4.40
2023-04-06T21:17:46.914Z,6.00
2023-04-06T21:20:15.806Z,6.80
2023-04-06T21:22:44.051Z,8.60
2023-04-06T21:25:13.814Z,7.90
2023-04-06T21:27:42.498Z,6.60
2023-04-06T21:30:12.065Z,9.20
2023-04-06T21:32:40.950Z,4.20
2023-04-06T21:35:10.149Z,6.50
2023-04-06T21:37:38.416Z,6.20
2023-04-06T21:40:07.950Z,7.20
2023-04-06T21:42:37.016Z,5.30
2023-04-06T21:45:06.228Z,6.90
2023-04-06T21:47:35.747Z,9.00
2023-04-06T21:50:04.399Z,4.00
2023-04-06T21:52:32.925Z,8.80
2023-04-06T21:55:01.570Z,5.80
2023-04-06T21:57:30.455Z,4.80
2023-04-06T21:59:58.863Z,6.30
2023-04-06T22:02:29.070Z,10.50
2023-04-06T22:04:59.378Z,5.30
2023-04-06T22:07:28.496Z,4.50
2023-04-06T22:09:57.054Z,4.30
2023-04-06T22:12:27.585Z,4.10
2023-04-06T22:14:57.152Z,3.40
2023-04-06T22:17:25.709Z,4.10
2023-04-06T22:19:55.078Z,3.30
2023-04-06T22:22:24.693Z,2.00
2023-04-06T22:24:52.960Z,3.40
2023-04-06T22:27:21.855Z,4.80
2023-04-06T22:29:50.439Z,2.30
2023-04-06T22:32:25.456Z,3.80
2023-04-06T22:34:54.195Z,1.80
2023-04-06T22:37:22.765Z,1.60
2023-04-06T22:39:52.040Z,3.20
2023-04-06T22:42:20.650Z,2.00
2023-04-06T22:44:50.846Z,1.60
2023-04-06T22:47:19.460Z,4.50
2023-04-06T22:49:47.926Z,6.90
2023-04-06T22:52:16.502Z,3.80
2023-04-06T22:54:45.020Z,4.90
2023-04-06T22:57:14.175Z,8.00
2023-04-06T22:59:42.542Z,11.20
2023-04-06T23:02:11.537Z,6.30
2023-04-06T23:04:40.579Z,4.80
2023-04-06T23:07:09.121Z,4.30
2023-04-06T23:09:37.607Z,3.90
2023-04-06T23:12:08.642Z,3.10
2023-04-06T23:14:37.925Z,3.60
2023-04-06T23:17:06.411Z,5.00
2023-04-06T23:19:36.028Z,4.60
2023-04-06T23:22:04.508Z,2.80
2023-04-06T23:24:33.958Z,4.00
2023-04-06T23:27:02.492Z,4.70
2023-04-06T23:29:33.585Z,4.20
2023-04-06T23:32:02.369Z,2.90
2023-04-06T23:34:31.047Z,3.00
2023-04-06T23:37:03.347Z,3.20
2023-04-06T23:39:32.316Z,2.90
2023-04-06T23:42:02.287Z,5.80
2023-04-06T23:44:31.175Z,3.60
2023-04-06T23:46:59.371Z,2.10
2023-04-06T23:49:28.036Z,2.40
2023-04-06T23:51:56.556Z,2.60
2023-04-06T23:54:25.035Z,2.10
2023-04-06T23:56:53.688Z,2.40
2023-04-06T23:59:22.637Z,3.10
